Time;durP1;ratioP1;P1;durP2;ratioP2;P2;SDS_P1;SDS_P2;PMS_P1;PMS_P2;Temp;Humidity;BMP_temperature;BMP_pressure;BME280_temperature;BME280_humidity;BME280_pressure;Samples;Min_cycle;Max_cycle;Signal;HPM_P1;HPM_P2
2024/03/21 00:02:18;;;;;;;6.35;3.70;;;9.50;99.90;;;;;;5026928;28;20029;-57
2024/03/21 00:04:44;;;;;;;8.30;3.80;;;9.50;99.90;;;;;;5031302;28;20031;-55
2024/03/21 00:07:09;;;;;;;6.55;3.80;;;9.50;99.90;;;;;;5032007;28;20025;-55
2024/03/21 00:09:38;;;;;;;8.73;3.97;;;9.40;99.90;;;;;;5035935;28;20061;-54
2024/03/21 00:12:03;;;;;;;5.78;3.30;;;9.40;99.90;;;;;;5031067;28;20028;-57
2024/03/21 00:14:29;;;;;;;9.38;4.40;;;9.50;99.90;;;;;;5033167;28;20479;-57
2024/03/21 00:16:55;;;;;;;14.90;3.90;;;9.50;99.90;;;;;;5030082;28;20044;-55
2024/03/21 00:19:20;;;;;;;7.18;3.35;;;9.50;99.90;;;;;;5030276;28;20037;-57
2024/03/21 00:21:46;;;;;;;7.53;3.60;;;9.50;99.90;;;;;;5030669;28;20079;-59
2024/03/21 00:24:12;;;;;;;7.05;3.13;;;9.40;99.90;;;;;;5031023;28;20029;-56
2024/03/21 00:26:39;;;;;;;10.60;4.10;;;9.40;99.90;;;;;;5030533;28;20037;-56
2024/03/21 00:29:04;;;;;;;7.90;3.70;;;9.30;99.90;;;;;;5030897;28;20103;-56
2024/03/21 00:31:34;;;;;;;6.68;3.67;;;9.20;99.90;;;;;;5029105;28;20029;-55
2024/03/21 00:34:00;;;;;;;7.75;4.15;;;9.20;99.90;;;;;;5030591;28;20505;-60
2024/03/21 00:36:26;;;;;;;8.90;3.88;;;9.20;99.90;;;;;;5031091;28;20109;-55
2024/03/21 00:38:52;;;;;;;9.00;3.88;;;9.00;99.90;;;;;;5030991;28;20129;-57
2024/03/21 00:41:19;;;;;;;6.97;3.92;;;9.00;99.90;;;;;;5030493;28;20037;-55
2024/03/21 00:43:46;;;;;;;12.15;3.92;;;8.90;99.90;;;;;;5031281;28;20040;-54
2024/03/21 00:46:12;;;;;;;6.80;3.80;;;8.80;99.90;;;;;;5027676;28;20044;-57
2024/03/21 00:48:37;;;;;;;10.82;3.95;;;8.80;99.90;;;;;;5035065;28;20432;-56
2024/03/21 00:51:03;;;;;;;12.07;4.38;;;8.70;99.90;;;;;;5032927;28;20030;-57
2024/03/21 00:53:29;;;;;;;8.30;3.67;;;8.60;99.90;;;;;;5033260;28;20530;-57
2024/03/21 00:55:55;;;;;;;12.23;4.65;;;8.60;99.90;;;;;;5033319;28;20022;-56
2024/03/21 00:58:20;;;;;;;6.07;3.47;;;8.50;99.90;;;;;;5034521;28;20029;-55
2024/03/21 01:00:46;;;;;;;6.28;3.80;;;8.50;99.90;;;;;;5033428;28;20025;-57
2024/03/21 01:03:12;;;;;;;6.57;3.67;;;8.50;99.90;;;;;;5033644;28;20029;-55
2024/03/21 01:05:38;;;;;;;7.93;4.30;;;8.40;99.90;;;;;;5035142;28;20124;-56
2024/03/21 01:08:04;;;;;;;13.98;5.25;;;8.30;99.90;;;;;;5035215;28;20617;-56
2024/03/21 01:10:29;;;;;;;7.93;4.47;;;8.30;99.90;;;;;;5034027;28;20112;-52
2024/03/21 01:12:55;;;;;;;9.40;4.13;;;8.20;99.90;;;;;;5034063;28;20033;-56
2024/03/21 01:15:20;;;;;;;6.57;4.05;;;8.20;99.90;;;;;;5034221;28;20057;-56
2024/03/21 01:17:46;;;;;;;7.28;3.50;;;8.20;99.90;;;;;;5034441;28;20075;-55
2024/03/21 01:20:12;;;;;;;7.03;3.97;;;8.20;99.90;;;;;;5033302;28;20411;-56
2024/03/21 01:22:38;;;;;;;10.15;4.28;;;8.20;99.90;;;;;;5033841;28;20104;-57
2024/03/21 01:25:05;;;;;;;11.48;4.28;;;8.20;99.90;;;;;;5033844;28;20033;-57
2024/03/21 01:27:30;;;;;;;5.97;3.95;;;8.20;99.90;;;;;;5033971;28;20104;-57
2024/03/21 01:29:56;;;;;;;7.88;3.80;;;8.20;99.90;;;;;;5029804;28;20120;-57
2024/03/21 01:32:22;;;;;;;6.28;3.80;;;8.20;99.90;;;;;;5028604;28;20578;-56
2024/03/21 01:34:49;;;;;;;8.38;3.97;;;8.20;99.90;;;;;;5030376;28;20469;-56
2024/03/21 01:37:14;;;;;;;9.27;3.90;;;8.20;99.90;;;;;;5034102;28;20069;-56
2024/03/21 01:39:40;;;;;;;7.50;4.18;;;8.20;99.90;;;;;;5034135;28;20068;-57
2024/03/21 01:42:06;;;;;;;8.55;4.40;;;8.20;99.90;;;;;;5033558;28;20490;-56
2024/03/21 01:44:31;;;;;;;8.45;3.85;;;8.40;99.90;;;;;;5032426;28;20709;-54
2024/03/21 01:46:58;;;;;;;8.38;3.85;;;8.40;99.90;;;;;;5031470;28;20029;-57
2024/03/21 01:49:24;;;;;;;6.57;3.60;;;8.50;99.90;;;;;;5033279;28;20029;-55
2024/03/21 01:51:51;;;;;;;8.63;4.30;;;8.50;99.90;;;;;;5028191;28;20022;-55
2024/03/21 01:54:17;;;;;;;8.18;3.45;;;8.50;99.90;;;;;;5033102;28;20053;-53
2024/03/21 01:56:44;;;;;;;6.82;3.63;;;8.60;99.90;;;;;;5027309;28;20022;-54
2024/03/21 01:59:10;;;;;;;6.75;3.80;;;8.60;99.90;;;;;;5032069;28;20395;-54
2024/03/21 02:01:36;;;;;;;7.18;3.80;;;8.70;99.90;;;;;;5033527;28;20030;-57
2024/03/21 02:04:03;;;;;;;7.55;3.72;;;8.70;99.90;;;;;;5033112;28;20026;-57
2024/03/21 02:06:33;;;;;;;9.57;3.70;;;8.80;99.90;;;;;;5026757;28;20034;-57
2024/03/21 02:09:01;;;;;;;6.22;3.20;;;8.80;99.90;;;;;;5033172;28;20679;-56
2024/03/21 02:11:27;;;;;;;9.05;4.78;;;8.80;99.90;;;;;;5030945;28;20030;-55
2024/03/21 02:13:54;;;;;;;10.82;4.18;;;8.70;99.90;;;;;;5029370;28;20061;-55
2024/03/21 02:16:23;;;;;;;6.95;3.50;;;8.70;99.90;;;;;;5022917;28;20429;-57
2024/03/21 02:18:50;;;;;;;10.80;4.88;;;8.70;99.90;;;;;;5031201;28;20032;-57
2024/03/21 02:24:01;;;;;;;8.32;4.88;;;8.60;99.90;;;;;;5021558;28;20045;-55
2024/03/21 02:26:26;;;;;;;11.85;4.60;;;8.60;99.90;;;;;;5030022;28;20087;-58
2024/03/21 02:28:53;;;;;;;9.23;4.28;;;8.50;99.90;;;;;;5033177;28;20021;-55
2024/03/21 02:31:19;;;;;;;9.43;5.28;;;8.50;99.90;;;;;;5031455;28;20442;-56
2024/03/21 02:33:45;;;;;;;12.48;4.70;;;8.50;99.90;;;;;;5031460;28;20120;-57
2024/03/21 02:36:11;;;;;;;7.32;3.95;;;8.50;99.90;;;;;;5033729;28;20467;-57
2024/03/21 02:38:37;;;;;;;11.13;5.32;;;8.40;99.90;;;;;;5032126;28;20040;-56
2024/03/21 02:41:02;;;;;;;9.93;4.80;;;8.40;99.90;;;;;;5032889;28;20037;-57
2024/03/21 02:43:28;;;;;;;9.00;4.32;;;8.40;99.90;;;;;;5031187;28;20025;-56
2024/03/21 02:45:53;;;;;;;9.48;5.70;;;8.30;99.90;;;;;;5033946;28;20033;-56
2024/03/21 02:48:19;;;;;;;9.70;4.70;;;8.30;99.90;;;;;;5031160;28;20033;-56
2024/03/21 02:50:44;;;;;;;13.07;5.28;;;8.20;99.90;;;;;;5031369;28;20036;-55
2024/03/21 02:53:10;;;;;;;14.32;4.80;;;8.20;99.90;;;;;;5024590;28;20028;-56
2024/03/21 02:55:35;;;;;;;13.13;5.40;;;8.10;99.90;;;;;;5032444;28;20025;-55
2024/03/21 02:58:01;;;;;;;13.63;5.88;;;8.10;99.90;;;;;;5032528;28;20060;-56
2024/03/21 03:00:26;;;;;;;9.63;5.65;;;8.10;99.90;;;;;;5032619;28;20033;-57
2024/03/21 03:02:52;;;;;;;14.63;5.13;;;8.00;99.90;;;;;;5031983;28;20026;-60
2024/03/21 03:05:20;;;;;;;10.63;5.28;;;8.00;99.90;;;;;;5032181;28;20104;-57
2024/03/21 03:07:45;;;;;;;9.32;5.65;;;8.00;99.90;;;;;;5029149;28;20037;-54
2024/03/21 03:10:12;;;;;;;12.18;5.43;;;8.00;99.90;;;;;;5034703;28;20033;-55
2024/03/21 03:12:37;;;;;;;11.60;5.40;;;8.00;99.90;;;;;;5032182;28;20533;-57
2024/03/21 03:15:04;;;;;;;12.52;5.10;;;7.90;99.90;;;;;;5032087;28;20025;-54
2024/03/21 03:17:29;;;;;;;8.52;4.82;;;7.90;99.90;;;;;;5032038;28;20021;-56
2024/03/21 03:19:55;;;;;;;6.95;4.35;;;7.90;99.90;;;;;;5031804;28;20028;-57
2024/03/21 03:22:20;;;;;;;10.75;5.70;;;8.00;99.90;;;;;;5031419;28;20022;-56
2024/03/21 03:24:46;;;;;;;9.07;5.72;;;8.00;99.90;;;;;;5030949;28;20026;-55
2024/03/21 03:27:11;;;;;;;14.18;4.97;;;8.10;99.90;;;;;;5031547;28;20045;-58
2024/03/21 03:29:37;;;;;;;8.18;5.15;;;8.10;99.90;;;;;;5031843;28;20029;-55
2024/03/21 03:32:03;;;;;;;14.15;5.72;;;8.20;99.90;;;;;;5031773;28;20515;-56
2024/03/21 03:37:16;;;;;;;12.05;4.85;;;8.20;99.90;;;;;;5031994;28;20032;-54
2024/03/21 03:39:42;;;;;;;9.95;4.85;;;8.20;99.90;;;;;;5023500;28;20503;-57
2024/03/21 03:42:08;;;;;;;16.27;4.70;;;8.20;99.90;;;;;;5030173;28;20057;-54
2024/03/21 03:44:34;;;;;;;14.60;5.30;;;8.20;99.90;;;;;;5031154;28;20041;-56
2024/03/21 03:46:59;;;;;;;12.88;5.32;;;8.20;99.90;;;;;;5031538;28;20037;-57
2024/03/21 03:49:25;;;;;;;10.95;5.50;;;8.20;99.90;;;;;;5029985;28;20479;-54
2024/03/21 03:51:51;;;;;;;11.52;4.75;;;8.20;99.90;;;;;;5025465;28;20079;-54
2024/03/21 03:54:18;;;;;;;12.88;5.35;;;8.20;99.90;;;;;;5030814;28;20451;-57
2024/03/21 03:56:44;;;;;;;6.97;4.55;;;8.20;99.90;;;;;;5031324;28;20024;-55
2024/03/21 03:59:09;;;;;;;8.70;4.72;;;8.10;99.90;;;;;;5031732;28;20033;-57
2024/03/21 04:01:35;;;;;;;10.57;4.85;;;8.10;99.90;;;;;;5020897;28;20496;-55
2024/03/21 04:04:00;;;;;;;11.43;5.40;;;8.10;99.90;;;;;;5031145;28;20025;-56
2024/03/21 04:06:26;;;;;;;9.25;4.90;;;8.10;99.90;;;;;;5031138;28;20032;-56
2024/03/21 04:08:52;;;;;;;14.40;4.65;;;8.10;99.90;;;;;;5031161;28;20445;-56
2024/03/21 04:11:18;;;;;;;10.50;4.20;;;8.10;99.90;;;;;;5031021;28;20026;-57
2024/03/21 04:13:43;;;;;;;13.68;4.80;;;8.10;99.90;;;;;;5031269;28;20024;-57
2024/03/21 04:16:14;;;;;;;8.40;4.70;;;8.10;99.90;;;;;;5031170;28;20057;-57
2024/03/21 04:18:39;;;;;;;11.77;6.13;;;8.10;99.90;;;;;;5026506;28;20029;-54
2024/03/21 04:21:05;;;;;;;12.73;7.07;;;8.10;99.90;;;;;;5034835;28;20024;-55
2024/03/21 04:23:31;;;;;;;20.90;6.10;;;8.10;99.90;;;;;;5035100;28;20033;-54
2024/03/21 04:25:56;;;;;;;10.30;5.38;;;8.20;99.90;;;;;;5034894;28;20053;-55
2024/03/21 04:28:22;;;;;;;8.43;5.03;;;8.20;99.90;;;;;;5036231;28;20033;-57
2024/03/21 04:30:47;;;;;;;13.82;6.20;;;8.20;99.90;;;;;;5034842;28;20474;-56
2024/03/21 04:33:13;;;;;;;15.90;6.45;;;8.20;99.90;;;;;;5033372;28;20051;-57
2024/03/21 04:35:39;;;;;;;10.40;4.50;;;8.20;99.90;;;;;;5009406;28;20120;-56
2024/03/21 04:38:07;;;;;;;8.50;4.57;;;8.20;99.90;;;;;;5035222;28;20037;-54
2024/03/21 04:40:33;;;;;;;10.18;4.65;;;8.10;99.90;;;;;;5034560;28;20072;-57
2024/03/21 04:42:58;;;;;;;10.80;4.68;;;8.00;99.90;;;;;;5063271;22;20082;-56
2024/03/21 04:45:24;;;;;;;12.52;4.43;;;7.90;99.90;;;;;;5052231;28;20045;-58
2024/03/21 04:47:51;;;;;;;12.20;5.68;;;7.90;99.90;;;;;;5050751;28;20027;-57
2024/03/21 04:50:18;;;;;;;10.88;4.93;;;7.90;99.90;;;;;;5053016;28;20036;-56
2024/03/21 04:52:43;;;;;;;10.60;5.50;;;7.90;99.90;;;;;;5039850;28;20113;-58
2024/03/21 04:55:10;;;;;;;10.07;5.50;;;7.90;99.90;;;;;;5032442;28;20108;-59
2024/03/21 04:57:36;;;;;;;8.32;5.38;;;8.00;99.90;;;;;;5033851;28;20039;-54
2024/03/21 05:00:04;;;;;;;23.40;6.60;;;8.00;99.90;;;;;;5034266;28;20029;-58
2024/03/21 05:02:29;;;;;;;15.80;7.63;;;8.10;99.90;;;;;;5033582;28;20033;-59
2024/03/21 05:04:55;;;;;;;21.92;11.25;;;8.20;99.90;;;;;;5034408;28;20024;-60
2024/03/21 05:07:20;;;;;;;20.40;11.20;;;8.40;99.90;;;;;;5030804;28;20466;-59
2024/03/21 05:09:46;;;;;;;17.38;9.63;;;8.40;99.90;;;;;;5031622;28;20030;-60
2024/03/21 05:12:13;;;;;;;21.67;12.55;;;8.50;99.90;;;;;;5033898;28;20021;-59
2024/03/21 05:14:38;;;;;;;21.27;9.55;;;8.60;99.90;;;;;;5036115;28;20026;-58
2024/03/21 05:17:04;;;;;;;24.58;10.38;;;8.60;99.90;;;;;;5034565;28;20100;-59
2024/03/21 05:19:30;;;;;;;21.98;12.95;;;8.70;99.90;;;;;;5036463;28;20105;-60
2024/03/21 05:21:55;;;;;;;24.30;14.23;;;8.80;99.90;;;;;;5034007;28;20083;-60
2024/03/21 05:24:21;;;;;;;22.45;12.88;;;9.00;99.90;;;;;;5035238;28;20120;-60
2024/03/21 05:26:46;;;;;;;25.63;13.70;;;9.00;99.90;;;;;;5034001;28;20034;-60
2024/03/21 05:29:12;;;;;;;26.48;12.80;;;9.10;99.90;;;;;;5032025;28;20028;-59
2024/03/21 05:31:38;;;;;;;26.05;14.30;;;9.10;99.90;;;;;;5038909;28;20029;-59
2024/03/21 05:34:03;;;;;;;25.50;12.55;;;9.10;99.90;;;;;;5034253;28;20364;-58
2024/03/21 05:36:29;;;;;;;26.67;14.05;;;9.10;99.90;;;;;;5027620;28;20032;-60
2024/03/21 05:38:56;;;;;;;29.05;12.00;;;9.10;99.90;;;;;;5030797;28;20397;-58
2024/03/21 05:41:21;;;;;;;15.88;7.43;;;9.00;99.90;;;;;;5023956;28;20476;-59
2024/03/21 05:43:47;;;;;;;15.13;7.50;;;8.90;99.90;;;;;;5013947;28;20088;-55
2024/03/21 05:46:12;;;;;;;9.20;5.40;;;8.80;99.90;;;;;;5029238;28;20083;-60
2024/03/21 05:48:39;;;;;;;14.32;7.97;;;8.70;99.90;;;;;;5040323;28;20064;-57
2024/03/21 05:51:05;;;;;;;14.23;8.48;;;8.60;99.90;;;;;;5034063;28;20438;-61
2024/03/21 05:53:30;;;;;;;9.85;6.22;;;8.60;99.90;;;;;;5040793;28;20021;-59
2024/03/21 05:55:58;;;;;;;17.20;8.70;;;8.50;99.90;;;;;;5023224;28;20116;-60
2024/03/21 05:58:24;;;;;;;31.30;14.63;;;8.50;99.90;;;;;;5026151;28;20151;-58
2024/03/21 06:01:04;;;;;;;44.58;20.30;;;8.70;99.90;;;;;;5031912;28;20551;-58
2024/03/21 06:03:30;;;;;;;37.80;21.13;;;8.80;99.90;;;;;;5019981;28;20108;-59
2024/03/21 06:05:56;;;;;;;51.58;24.92;;;8.90;99.90;;;;;;5028900;28;20048;-59
2024/03/21 06:08:22;;;;;;;50.75;25.70;;;9.00;99.90;;;;;;5031373;28;20025;-58
2024/03/21 06:10:48;;;;;;;52.22;25.88;;;9.00;99.90;;;;;;5033024;28;20025;-59
2024/03/21 06:13:13;;;;;;;44.90;24.17;;;9.10;99.90;;;;;;5033233;28;20144;-59
2024/03/21 06:15:39;;;;;;;51.30;26.13;;;9.10;99.90;;;;;;5033012;28;20493;-59
2024/03/21 06:18:05;;;;;;;44.80;23.77;;;9.20;99.90;;;;;;5023004;28;20434;-58
2024/03/21 06:20:30;;;;;;;46.92;25.75;;;9.30;99.90;;;;;;5032681;28;20399;-59
2024/03/21 06:22:56;;;;;;;48.47;25.73;;;9.30;99.90;;;;;;5032688;28;20104;-58
2024/03/21 06:25:21;;;;;;;49.55;26.02;;;9.40;99.90;;;;;;5020316;28;20026;-59
2024/03/21 06:27:49;;;;;;;46.53;24.10;;;9.50;99.90;;;;;;5033502;28;20112;-59
2024/03/21 06:30:15;;;;;;;50.60;24.92;;;9.60;99.90;;;;;;5028381;28;20111;-59
2024/03/21 06:32:41;;;;;;;51.40;25.95;;;9.70;99.90;;;;;;5032487;28;20491;-58
2024/03/21 06:35:07;;;;;;;41.08;24.38;;;9.80;99.90;;;;;;5032215;28;20101;-59
2024/03/21 06:37:33;;;;;;;49.28;23.65;;;9.80;99.90;;;;;;5030084;28;20018;-58
2024/03/21 06:39:59;;;;;;;44.53;23.85;;;10.00;99.90;;;;;;5043663;28;20439;-58
2024/03/21 06:42:25;;;;;;;41.20;24.35;;;10.10;99.90;;;;;;5033832;28;20495;-57
2024/03/21 06:44:51;;;;;;;42.78;22.00;;;10.10;99.90;;;;;;5032393;28;20029;-58
2024/03/21 06:47:16;;;;;;;44.35;23.83;;;10.20;99.90;;;;;;5032679;28;20029;-58
2024/03/21 06:49:42;;;;;;;39.08;21.83;;;10.40;99.90;;;;;;5032269;28;20052;-58
2024/03/21 06:52:07;;;;;;;40.20;20.65;;;10.50;99.90;;;;;;5032482;28;20021;-58
2024/03/21 06:54:33;;;;;;;34.13;21.45;;;10.60;99.90;;;;;;5032423;28;20025;-56
2024/03/21 06:57:00;;;;;;;42.65;21.52;;;10.50;99.90;;;;;;5032177;28;20108;-57
2024/03/21 06:59:25;;;;;;;45.90;21.33;;;10.60;99.90;;;;;;5032552;28;20049;-57
2024/03/21 07:01:51;;;;;;;41.88;20.92;;;10.60;99.90;;;;;;5032172;28;20025;-58
2024/03/21 07:04:17;;;;;;;45.05;21.80;;;10.60;99.90;;;;;;5024948;28;20052;-57
2024/03/21 07:06:42;;;;;;;47.58;21.27;;;10.70;99.90;;;;;;5028807;28;20033;-57
2024/03/21 07:09:08;;;;;;;45.17;21.27;;;10.90;99.90;;;;;;5032048;28;20048;-57
2024/03/21 07:11:33;;;;;;;37.35;20.70;;;11.20;99.90;;;;;;5031981;28;20395;-57
2024/03/21 07:14:01;;;;;;;43.00;21.25;;;11.40;99.90;;;;;;5032043;28;20072;-57
2024/03/21 07:16:27;;;;;;;41.05;20.77;;;11.60;99.90;;;;;;5030399;28;20395;-58
2024/03/21 07:18:53;;;;;;;36.13;18.58;;;11.70;99.90;;;;;;5031693;28;20025;-56
2024/03/21 07:21:19;;;;;;;39.55;19.65;;;11.90;99.90;;;;;;5030401;28;20026;-57
2024/03/21 07:23:44;;;;;;;37.63;17.67;;;12.00;99.90;;;;;;5031999;28;20111;-58
2024/03/21 07:26:10;;;;;;;40.17;19.30;;;12.10;99.90;;;;;;5031597;28;20204;-60
2024/03/21 07:28:35;;;;;;;38.45;19.02;;;12.20;99.90;;;;;;5031843;28;20029;-57
2024/03/21 07:31:01;;;;;;;37.67;19.25;;;12.10;99.90;;;;;;5031463;28;20026;-58
2024/03/21 07:33:26;;;;;;;38.28;20.08;;;11.90;99.90;;;;;;5031455;28;20030;-56
2024/03/21 07:35:55;;;;;;;38.63;19.67;;;11.80;99.90;;;;;;5031698;28;20032;-56
2024/03/21 07:38:21;;;;;;;42.10;19.23;;;12.00;99.90;;;;;;5030385;28;20024;-59
2024/03/21 07:40:56;;;;;;;35.75;18.45;;;12.20;99.90;;;;;;5030167;28;20030;-59
2024/03/21 07:43:23;;;;;;;33.92;17.98;;;12.40;99.90;;;;;;5031424;28;20029;-60
2024/03/21 07:45:48;;;;;;;34.38;18.55;;;12.50;99.90;;;;;;5031481;28;20025;-57
2024/03/21 07:48:14;;;;;;;38.33;19.00;;;12.50;99.90;;;;;;5031350;28;20041;-59
2024/03/21 07:50:39;;;;;;;35.25;19.10;;;12.90;99.90;;;;;;5031346;28;20428;-58
2024/03/21 07:53:05;;;;;;;36.65;18.23;;;13.20;99.90;;;;;;5030967;28;20455;-58
2024/03/21 07:55:31;;;;;;;35.90;18.52;;;13.30;99.90;;;;;;5027615;28;20384;-59
2024/03/21 07:57:57;;;;;;;31.38;17.73;;;13.40;99.90;;;;;;5021301;28;20101;-58
2024/03/21 08:00:23;;;;;;;36.17;20.17;;;13.50;99.90;;;;;;5031615;28;20117;-59
2024/03/21 08:02:49;;;;;;;42.55;22.30;;;13.20;99.90;;;;;;5031259;28;20036;-58
2024/03/21 08:05:15;;;;;;;46.05;22.67;;;13.20;99.90;;;;;;5029432;28;20431;-59
2024/03/21 08:07:41;;;;;;;52.25;26.38;;;12.90;99.90;;;;;;5030159;28;20022;-58
2024/03/21 08:10:07;;;;;;;50.90;27.52;;;12.70;99.90;;;;;;5030485;28;20017;-58
2024/03/21 08:12:33;;;;;;;56.67;28.63;;;12.50;99.90;;;;;;5030621;28;20506;-57
2024/03/21 08:14:58;;;;;;;61.20;31.45;;;12.60;99.90;;;;;;5029347;28;20025;-58
2024/03/21 08:17:24;;;;;;;61.00;31.52;;;12.50;99.90;;;;;;5030773;28;20025;-57
2024/03/21 08:19:53;;;;;;;66.93;32.20;;;12.60;99.90;;;;;;5030441;28;20026;-59
2024/03/21 08:22:19;;;;;;;55.50;29.60;;;12.70;99.90;;;;;;5030648;28;20532;-57
2024/03/21 08:24:44;;;;;;;52.63;28.90;;;12.80;99.90;;;;;;5030515;28;20057;-58
2024/03/21 08:27:10;;;;;;;48.30;28.55;;;12.70;99.90;;;;;;5027677;28;20041;-59
2024/03/21 08:29:35;;;;;;;53.22;28.23;;;12.80;99.90;;;;;;5031035;28;20033;-59
2024/03/21 08:32:01;;;;;;;55.83;28.98;;;12.80;99.90;;;;;;5031562;28;20029;-58
2024/03/21 08:34:27;;;;;;;49.00;27.88;;;12.90;99.90;;;;;;5030462;28;20022;-57
2024/03/21 08:36:52;;;;;;;56.30;28.70;;;12.90;99.90;;;;;;5030402;28;20113;-58
2024/03/21 08:39:18;;;;;;;56.90;30.75;;;12.90;99.90;;;;;;5022000;28;20045;-58
2024/03/21 08:41:43;;;;;;;57.85;31.02;;;12.80;99.90;;;;;;5030419;28;20033;-55
2024/03/21 08:44:09;;;;;;;63.80;34.38;;;12.80;99.90;;;;;;5030672;28;20029;-59
2024/03/21 08:46:34;;;;;;;62.25;32.78;;;12.80;99.90;;;;;;5029334;28;20120;-58
2024/03/21 08:49:00;;;;;;;61.28;34.28;;;12.90;99.90;;;;;;5013105;28;20070;-59
2024/03/21 08:51:25;;;;;;;69.47;35.50;;;12.90;99.90;;;;;;5018814;28;20022;-58
2024/03/21 08:53:51;;;;;;;61.05;33.80;;;13.00;99.90;;;;;;5030443;28;20026;-57
2024/03/21 08:56:16;;;;;;;56.10;31.55;;;13.10;99.90;;;;;;5030219;28;20387;-58
2024/03/21 08:58:42;;;;;;;54.50;29.35;;;13.20;99.90;;;;;;5030408;28;20475;-59
2024/03/21 09:01:08;;;;;;;48.15;26.58;;;13.20;99.90;;;;;;5031251;28;20024;-58
2024/03/21 09:03:33;;;;;;;43.33;23.25;;;13.20;99.90;;;;;;5030987;28;20475;-59
2024/03/21 09:05:59;;;;;;;38.53;22.52;;;13.40;99.90;;;;;;5034003;28;20487;-58
2024/03/21 09:08:25;;;;;;;36.80;20.77;;;13.50;99.90;;;;;;5033820;28;20037;-58
2024/03/21 09:10:50;;;;;;;39.10;22.55;;;13.20;99.90;;;;;;5034240;28;20471;-60
2024/03/21 09:13:16;;;;;;;39.75;23.73;;;13.10;99.90;;;;;;5033501;28;20013;-55
2024/03/21 09:15:41;;;;;;;36.42;22.88;;;13.00;99.90;;;;;;5033755;28;20018;-59
2024/03/21 09:18:07;;;;;;;38.20;22.92;;;13.00;99.90;;;;;;5034063;28;20056;-60
2024/03/21 09:20:35;;;;;;;39.42;22.15;;;13.00;99.90;;;;;;5033924;28;20036;-57
2024/03/21 09:23:00;;;;;;;42.70;21.95;;;13.00;99.90;;;;;;5026996;28;20065;-57
2024/03/21 09:25:26;;;;;;;41.63;22.98;;;12.80;99.90;;;;;;5033334;28;20060;-57
2024/03/21 09:27:51;;;;;;;38.22;21.65;;;12.80;99.90;;;;;;5033127;28;20041;-58
2024/03/21 09:30:17;;;;;;;40.08;20.42;;;12.90;99.90;;;;;;5033321;28;20025;-58
2024/03/21 09:32:43;;;;;;;30.52;18.75;;;12.90;99.90;;;;;;5027988;28;20092;-59
2024/03/21 09:35:09;;;;;;;32.58;16.58;;;13.20;99.90;;;;;;5030799;28;20070;-56
2024/03/21 09:37:35;;;;;;;31.95;16.90;;;13.40;99.90;;;;;;5025253;28;20022;-57
2024/03/21 09:40:00;;;;;;;30.38;16.75;;;13.60;99.90;;;;;;5033648;28;20079;-59
2024/03/21 09:42:26;;;;;;;26.48;16.02;;;13.80;99.90;;;;;;5033105;28;20476;-59
2024/03/21 09:44:53;;;;;;;26.05;15.63;;;13.80;99.90;;;;;;5037605;28;20053;-58
2024/03/21 09:47:20;;;;;;;23.88;15.38;;;13.90;99.90;;;;;;5029787;28;20022;-57
2024/03/21 09:49:51;;;;;;;27.60;16.27;;;14.00;99.90;;;;;;5027905;28;20029;-58
2024/03/21 09:52:17;;;;;;;29.42;17.02;;;13.70;99.90;;;;;;5033196;28;20360;-56
2024/03/21 09:54:43;;;;;;;30.10;17.10;;;13.70;99.90;;;;;;5032863;28;20076;-59
2024/03/21 09:57:12;;;;;;;33.42;19.42;;;13.70;99.90;;;;;;5032911;28;20071;-59
2024/03/21 09:59:38;;;;;;;38.17;23.63;;;13.70;99.90;;;;;;5033018;28;20091;-59
2024/03/21 10:02:07;;;;;;;33.65;21.48;;;13.70;99.90;;;;;;5032957;28;20403;-57
2024/03/21 10:04:53;;;;;;;33.70;19.13;;;13.60;99.90;;;;;;5031409;28;20036;-59
2024/03/21 10:07:20;;;;;;;31.88;19.45;;;13.60;99.90;;;;;;5029409;28;20018;-59
2024/03/21 10:09:56;;;;;;;29.88;18.88;;;13.70;99.90;;;;;;5032595;28;20033;-57
2024/03/21 10:12:23;;;;;;;33.08;19.05;;;13.80;99.90;;;;;;5032648;28;20087;-59
2024/03/21 10:14:55;;;;;;;31.55;18.20;;;13.80;99.90;;;;;;5032395;28;20025;-58
2024/03/21 10:17:24;;;;;;;25.67;14.00;;;14.20;99.90;;;;;;5032673;28;20049;-59
2024/03/21 10:19:50;;;;;;;21.40;13.10;;;14.70;99.90;;;;;;5032618;28;20029;-60
2024/03/21 10:22:20;;;;;;;21.90;11.75;;;14.90;99.90;;;;;;5032214;28;20438;-59
2024/03/21 10:24:56;;;;;;;18.67;11.98;;;15.60;99.90;;;;;;5032689;28;20033;-60
2024/03/21 10:27:23;;;;;;;15.73;9.20;;;16.10;99.90;;;;;;5019962;28;20487;-59
2024/03/21 10:29:50;;;;;;;13.07;7.68;;;16.10;99.90;;;;;;5025116;28;20095;-59
2024/03/21 10:32:18;;;;;;;10.43;7.40;;;15.90;99.90;;;;;;5030801;28;20109;-60
2024/03/21 10:34:52;;;;;;;10.93;7.25;;;15.70;99.90;;;;;;5032265;28;20044;-59
2024/03/21 10:37:19;;;;;;;11.48;6.82;;;15.60;99.90;;;;;;5032094;28;20021;-60
2024/03/21 10:39:46;;;;;;;13.45;7.63;;;15.60;99.90;;;;;;5018761;28;20053;-58
2024/03/21 10:42:29;;;;;;;15.20;9.65;;;15.60;99.90;;;;;;5023602;28;20122;-56
2024/03/21 10:45:02;;;;;;;13.50;8.20;;;15.60;99.90;;;;;;5032133;28;20104;-57
2024/03/21 10:47:29;;;;;;;12.40;6.55;;;15.70;99.90;;;;;;5026204;28;20036;-58
2024/03/21 10:49:55;;;;;;;11.70;6.65;;;16.10;99.90;;;;;;5019565;28;20222;-58
2024/03/21 10:52:21;;;;;;;12.32;8.45;;;16.50;99.90;;;;;;5050037;23;20022;-60
2024/03/21 10:54:54;;;;;;;11.70;7.85;;;16.50;99.90;;;;;;5007257;28;20033;-64
2024/03/21 10:57:24;;;;;;;12.75;8.05;;;16.20;99.90;;;;;;5010345;28;20117;-60
2024/03/21 10:59:57;;;;;;;15.98;8.18;;;16.30;99.90;;;;;;5011110;28;20065;-59
2024/03/21 11:02:27;;;;;;;15.98;9.05;;;16.50;99.90;;;;;;5011222;28;20018;-58
2024/03/21 11:04:53;;;;;;;11.95;8.00;;;16.00;99.90;;;;;;5009751;28;20112;-60
2024/03/21 11:07:20;;;;;;;14.15;8.20;;;15.90;99.90;;;;;;5007007;28;20046;-60
2024/03/21 11:09:47;;;;;;;14.93;9.50;;;15.80;99.90;;;;;;5010098;28;20026;-60
2024/03/21 11:12:13;;;;;;;12.73;7.85;;;16.00;99.90;;;;;;5011955;28;20025;-60
2024/03/21 11:14:40;;;;;;;20.40;8.65;;;16.20;99.90;;;;;;5010541;28;20025;-61
2024/03/21 11:17:06;;;;;;;11.15;7.90;;;16.10;99.90;;;;;;5011494;28;20056;-62
2024/03/21 11:19:32;;;;;;;12.93;7.90;;;16.20;99.90;;;;;;5010923;28;20140;-60
2024/03/21 11:21:58;;;;;;;11.10;8.32;;;16.40;99.90;;;;;;5012497;28;20026;-61
2024/03/21 11:24:23;;;;;;;10.95;7.72;;;16.80;99.90;;;;;;5012473;28;20037;-60
2024/03/21 11:26:49;;;;;;;10.55;7.10;;;16.70;99.90;;;;;;5011367;28;20026;-60
2024/03/21 11:29:15;;;;;;;8.77;6.43;;;16.40;99.90;;;;;;5010831;28;20029;-62
2024/03/21 11:31:42;;;;;;;11.10;6.50;;;16.20;99.90;;;;;;5012020;28;20088;-60
2024/03/21 11:34:09;;;;;;;7.13;5.80;;;16.10;99.90;;;;;;5010244;28;20042;-58
2024/03/21 11:36:34;;;;;;;7.97;5.05;;;16.10;99.90;;;;;;5006711;28;20058;-60
2024/03/21 11:39:00;;;;;;;6.72;4.90;;;15.80;99.90;;;;;;4998013;28;20074;-60
2024/03/21 11:41:26;;;;;;;7.43;5.18;;;15.90;99.90;;;;;;5011823;28;20026;-60
2024/03/21 11:43:54;;;;;;;5.78;4.50;;;16.30;99.90;;;;;;5008745;28;20049;-60
2024/03/21 11:46:21;;;;;;;6.00;4.60;;;16.10;99.90;;;;;;5011608;28;20388;-60
2024/03/21 11:49:03;;;;;;;7.97;4.43;;;16.20;99.90;;;;;;5008447;28;20068;-60
2024/03/21 11:51:30;;;;;;;7.35;4.20;;;16.10;99.90;;;;;;5011546;28;20029;-60
2024/03/21 11:54:04;;;;;;;6.40;3.97;;;16.00;99.90;;;;;;5009327;28;20026;-61
2024/03/21 11:56:29;;;;;;;;;;;16.10;99.90;;;;;;5010596;28;20036;-60
2024/03/21 11:58:55;;;;;;;6.05;4.20;;;16.10;99.90;;;;;;5010633;28;19909;-60
2024/03/21 12:01:21;;;;;;;6.40;3.97;;;16.00;99.90;;;;;;5010913;28;20384;-60
2024/03/21 12:03:46;;;;;;;5.55;3.63;;;15.90;99.90;;;;;;5008739;28;20038;-60
2024/03/21 12:06:12;;;;;;;7.28;3.90;;;15.90;99.90;;;;;;5010118;28;20034;-59
2024/03/21 12:08:37;;;;;;;7.90;4.15;;;15.80;99.90;;;;;;5010623;28;20041;-59
2024/03/21 12:11:16;;;;;;;4.65;3.60;;;16.00;99.90;;;;;;5008441;28;20029;-61
2024/03/21 12:13:42;;;;;;;5.20;4.03;;;15.90;99.90;;;;;;5006884;28;20470;-60
2024/03/21 12:16:18;;;;;;;6.90;4.45;;;15.80;99.90;;;;;;5004212;28;20053;-61
2024/03/21 12:18:44;;;;;;;7.35;4.18;;;15.70;99.90;;;;;;5005009;28;20041;-60
2024/03/21 12:21:18;;;;;;;5.07;3.72;;;15.70;99.90;;;;;;5005026;28;20043;-61
2024/03/21 12:23:44;;;;;;;;;;;15.80;99.90;;;;;;5008943;28;20022;-60
2024/03/21 12:26:11;;;;;;;4.53;3.50;;;15.60;99.90;;;;;;5010290;28;19905;-60
2024/03/21 12:28:37;;;;;;;6.43;4.15;;;15.70;99.90;;;;;;5011444;28;20036;-59
2024/03/21 12:31:02;;;;;;;4.47;3.63;;;15.40;99.90;;;;;;5010038;28;20026;-60
2024/03/21 12:33:28;;;;;;;4.78;3.75;;;15.20;99.90;;;;;;5005784;28;20034;-60
2024/03/21 12:35:54;;;;;;;7.82;4.20;;;15.10;99.90;;;;;;5006657;28;20100;-58
2024/03/21 12:38:19;;;;;;;5.03;4.15;;;14.90;99.90;;;;;;5016067;28;20040;-59
2024/03/21 12:40:47;;;;;;;5.85;3.67;;;15.20;99.90;;;;;;5008902;28;20061;-60
2024/03/21 12:43:12;;;;;;;3.60;3.08;;;15.20;99.90;;;;;;5016995;28;20088;-58